createdAt,value
2023-02-27T00:04:57.548Z,100540.41
2023-02-27T00:10:04.844Z,100555.06
2023-02-27T00:15:15.530Z,100559.00
2023-02-27T00:20:23.618Z,100572.88
2023-02-27T00:25:36.117Z,100571.56
2023-02-27T00:30:39.523Z,100576.13
2023-02-27T00:35:46.010Z,100566.84
2023-02-27T00:40:54.307Z,100576.81
2023-02-27T00:45:59.556Z,100580.81
2023-02-27T00:51:07.549Z,100589.44
2023-02-27T00:56:12.738Z,100609.78
2023-02-27T01:01:21.282Z,100611.88
2023-02-27T01:06:25.861Z,100608.94
2023-02-27T01:11:33.311Z,100613.66
2023-02-27T01:16:41.604Z,100613.53
2023-02-27T01:21:46.994Z,100614.81
2023-02-27T01:27:01.338Z,100618.69
2023-02-27T01:32:09.783Z,100621.72
2023-02-27T01:37:18.555Z,100627.28
2023-02-27T01:42:32.727Z,100625.28
2023-02-27T01:47:38.680Z,100623.63
2023-02-27T01:52:44.561Z,100628.69
2023-02-27T01:57:50.364Z,100622.78
2023-02-27T02:05:19.622Z,100634.41
2023-02-27T02:10:26.691Z,100633.03
2023-02-27T02:15:37.378Z,100639.63
2023-02-27T02:21:14.012Z,100631.75
2023-02-27T02:26:49.806Z,100631.41
2023-02-27T02:32:40.077Z,100641.59
2023-02-27T02:38:09.208Z,100641.00
2023-02-27T02:43:43.195Z,100636.25
2023-02-27T02:49:33.656Z,100630.84
2023-02-27T02:54:54.618Z,100637.41
2023-02-27T03:00:28.603Z,100647.19
2023-02-27T03:05:54.107Z,100648.28
2023-02-27T03:11:03.586Z,100651.69
2023-02-27T03:16:56.019Z,100664.72
2023-02-27T03:22:10.185Z,100659.56
2023-02-27T03:27:16.811Z,100660.84
2023-02-27T03:32:41.097Z,100665.31
2023-02-27T03:38:01.018Z,100675.94
2023-02-27T03:43:33.205Z,100673.00
2023-02-27T03:48:45.692Z,100678.38
2023-02-27T03:53:58.694Z,100689.91
2023-02-27T03:59:04.786Z,100699.88
2023-02-27T04:04:15.543Z,100708.56
2023-02-27T04:10:17.463Z,100716.31
2023-02-27T04:15:42.009Z,100718.34
2023-02-27T04:21:11.272Z,100722.81
2023-02-27T04:26:32.441Z,100729.03
2023-02-27T04:32:00.058Z,100731.84
2023-02-27T04:37:20.705Z,100741.56
2023-02-27T04:42:34.220Z,100749.56
2023-02-27T04:47:49.317Z,100751.91
2023-02-27T04:53:07.134Z,100755.13
2023-02-27T04:58:21.371Z,100768.09
2023-02-27T05:09:38.697Z,100777.31
2023-02-27T05:14:50.116Z,100767.34
2023-02-27T05:19:52.642Z,100772.97
2023-02-27T05:25:36.014Z,100778.50
2023-02-27T05:30:52.846Z,100778.72
2023-02-27T05:36:32.582Z,100791.84
2023-02-27T05:42:00.541Z,100789.75
2023-02-27T05:47:08.141Z,100797.16
2023-02-27T05:52:15.495Z,100795.16
2023-02-27T05:57:26.052Z,100797.25
2023-02-27T06:02:29.422Z,100792.28
2023-02-27T06:07:32.776Z,100790.28
2023-02-27T06:12:34.715Z,100793.66
2023-02-27T06:17:36.616Z,100789.28
2023-02-27T06:22:38.626Z,100795.13
2023-02-27T06:27:40.727Z,100801.81
2023-02-27T06:32:43.016Z,100791.91
2023-02-27T06:37:45.265Z,100801.06
2023-02-27T06:42:49.607Z,100807.28
2023-02-27T06:47:52.372Z,100814.31
2023-02-27T06:52:55.420Z,100816.56
2023-02-27T06:57:57.408Z,100819.41
2023-02-27T07:03:00.458Z,100824.59
2023-02-27T07:08:04.049Z,100819.41
2023-02-27T07:13:06.165Z,100833.28
2023-02-27T07:18:08.254Z,100833.06
2023-02-27T07:23:10.846Z,100839.50
2023-02-27T07:28:12.909Z,100844.53
2023-02-27T07:33:15.414Z,100858.00
2023-02-27T07:38:19.097Z,100849.69
2023-02-27T07:43:26.732Z,100854.63
2023-02-27T07:48:29.656Z,100862.88
2023-02-27T07:53:31.788Z,100862.00
2023-02-27T07:58:33.792Z,100854.50
2023-02-27T08:03:35.936Z,100859.91
2023-02-27T08:08:38.235Z,100869.88
2023-02-27T08:13:59.568Z,100875.03
2023-02-27T08:19:03.326Z,100892.41
2023-02-27T08:24:05.440Z,100894.56
2023-02-27T08:29:07.864Z,100904.84
2023-02-27T08:34:10.947Z,100903.72
2023-02-27T08:39:13.691Z,100909.50
2023-02-27T08:44:16.541Z,100920.00
2023-02-27T08:49:21.436Z,100912.44
2023-02-27T08:54:23.840Z,100908.81
2023-02-27T08:59:25.843Z,100910.56
2023-02-27T09:04:27.892Z,100898.06
2023-02-27T09:09:29.972Z,100915.97
2023-02-27T09:14:32.157Z,100905.16
2023-02-27T09:19:37.184Z,100907.03
2023-02-27T09:24:39.307Z,100916.84
2023-02-27T09:29:44.362Z,100921.22
2023-02-27T09:34:46.390Z,100915.94
2023-02-27T09:39:48.624Z,100915.00
2023-02-27T09:44:53.964Z,100904.94
2023-02-27T09:50:05.356Z,100907.41
2023-02-27T09:55:17.369Z,100901.00
2023-02-27T10:00:31.174Z,100877.03
2023-02-27T10:06:08.909Z,100880.06
2023-02-27T10:11:16.720Z,100883.75
2023-02-27T10:16:30.121Z,100877.56
2023-02-27T10:21:40.664Z,100881.41
2023-02-27T10:26:45.020Z,100887.56
2023-02-27T10:32:00.252Z,100891.66
2023-02-27T10:37:05.355Z,100873.84
2023-02-27T10:42:12.525Z,100887.50
2023-02-27T10:47:17.703Z,100894.88
2023-02-27T10:52:19.802Z,100887.56
2023-02-27T10:57:29.398Z,100877.16
2023-02-27T11:02:39.089Z,100880.41
2023-02-27T11:07:41.657Z,100880.19
2023-02-27T11:13:01.985Z,100873.72
2023-02-27T11:18:37.880Z,100869.88
2023-02-27T11:24:08.065Z,100865.53
2023-02-27T11:29:20.474Z,100858.16
2023-02-27T11:34:42.826Z,100850.25
2023-02-27T11:40:03.137Z,100851.63
2023-02-27T11:46:04.248Z,100847.53
2023-02-27T11:51:07.827Z,100836.03
2023-02-27T11:56:18.600Z,100826.69
2023-02-27T12:01:43.708Z,100812.41
2023-02-27T12:07:09.622Z,100807.78
2023-02-27T12:12:40.507Z,100794.06
2023-02-27T12:18:35.681Z,100792.44
2023-02-27T12:23:49.511Z,100786.66
2023-02-27T12:29:00.491Z,100796.97
2023-02-27T12:34:40.936Z,100797.53
2023-02-27T12:39:45.130Z,100805.22
2023-02-27T12:45:26.844Z,100792.09
2023-02-27T12:50:57.855Z,100789.84
2023-02-27T12:56:23.003Z,100784.28
2023-02-27T13:01:58.726Z,100788.47
2023-02-27T13:07:00.684Z,100778.91
2023-02-27T13:12:14.742Z,100771.69
2023-02-27T13:17:18.835Z,100779.91
2023-02-27T13:22:30.530Z,100779.28
2023-02-27T13:27:37.588Z,100794.53
2023-02-27T13:32:49.326Z,100788.63
2023-02-27T13:38:08.161Z,100794.78
2023-02-27T13:43:46.485Z,100782.22
2023-02-27T13:49:29.710Z,100779.97
2023-02-27T13:54:34.648Z,100796.13
2023-02-27T13:59:40.132Z,100789.59
2023-02-27T14:04:51.642Z,100786.31
2023-02-27T14:10:05.489Z,100792.53
2023-02-27T14:15:30.582Z,100789.19
2023-02-27T14:20:32.751Z,100793.19
2023-02-27T14:25:40.571Z,100793.63
2023-02-27T14:30:51.482Z,100793.75
2023-02-27T14:35:59.170Z,100790.97
2023-02-27T14:41:01.238Z,100792.50
2023-02-27T14:46:12.659Z,100794.00
2023-02-27T14:51:15.571Z,100803.47
2023-02-27T14:56:19.915Z,100802.50
2023-02-27T15:01:22.183Z,100808.84
2023-02-27T15:06:36.556Z,100812.97
2023-02-27T15:11:43.156Z,100829.66
2023-02-27T15:16:47.183Z,100839.84
2023-02-27T15:21:54.283Z,100837.78
2023-02-27T15:27:00.870Z,100851.84
2023-02-27T15:32:05.927Z,100856.69
2023-02-27T15:37:07.999Z,100871.31
2023-02-27T15:42:10.314Z,100881.00
2023-02-27T15:47:18.736Z,100886.94
2023-02-27T15:52:26.132Z,100889.66
2023-02-27T15:57:28.486Z,100884.31
2023-02-27T16:02:39.656Z,100891.38
2023-02-27T16:07:43.350Z,100883.00
2023-02-27T16:12:46.589Z,100870.81
2023-02-27T16:18:27.419Z,100860.88
2023-02-27T16:23:31.977Z,100858.84
2023-02-27T16:28:51.063Z,100864.69
2023-02-27T16:33:55.024Z,100876.72
2023-02-27T16:38:57.221Z,100885.66
2023-02-27T16:43:59.234Z,100893.56
2023-02-27T16:49:17.887Z,100912.66
2023-02-27T16:54:21.197Z,100917.59
2023-02-27T16:59:36.330Z,100921.84
2023-02-27T17:04:38.366Z,100914.22
2023-02-27T17:09:40.348Z,100910.66
2023-02-27T17:14:42.659Z,100915.28
2023-02-27T17:19:45.252Z,100908.78
2023-02-27T17:24:47.024Z,100935.91
2023-02-27T17:29:49.137Z,100943.56
2023-02-27T17:34:55.621Z,100946.78
2023-02-27T17:39:57.577Z,100945.13
2023-02-27T17:45:01.316Z,100943.00
2023-02-27T17:50:04.944Z,100963.16
2023-02-27T17:55:12.805Z,100982.72
2023-02-27T18:00:15.477Z,100999.59
2023-02-27T18:05:18.171Z,101013.50
2023-02-27T18:10:20.170Z,101028.97
2023-02-27T18:15:22.375Z,101042.53
2023-02-27T18:20:24.412Z,101052.16
2023-02-27T18:25:26.699Z,101064.00
2023-02-27T18:30:31.243Z,101068.69
2023-02-27T18:35:33.371Z,101067.63
2023-02-27T18:40:35.364Z,101068.84
2023-02-27T18:45:37.982Z,101061.28
2023-02-27T18:50:40.293Z,101062.47
2023-02-27T18:55:42.435Z,101061.75
2023-02-27T19:00:44.427Z,101052.66
2023-02-27T19:05:46.816Z,101057.50
2023-02-27T19:10:48.971Z,101051.94
2023-02-27T19:15:51.489Z,101050.88
2023-02-27T19:20:54.832Z,101044.53
2023-02-27T19:26:01.091Z,101038.06
2023-02-27T19:31:10.925Z,101032.78
2023-02-27T19:36:15.465Z,101035.59
2023-02-27T19:41:18.448Z,101023.81
2023-02-27T19:46:24.347Z,101016.88
2023-02-27T19:51:26.779Z,101009.34
2023-02-27T19:56:30.053Z,101012.41
2023-02-27T20:01:38.898Z,100997.44
2023-02-27T20:06:44.112Z,100987.09
2023-02-27T20:11:48.353Z,100982.84
2023-02-27T20:16:50.552Z,100981.31
2023-02-27T20:21:54.441Z,100978.94
2023-02-27T20:26:59.096Z,100961.88
2023-02-27T20:32:01.627Z,100966.69
2023-02-27T20:37:04.066Z,100951.03
2023-02-27T20:42:08.250Z,100945.13
2023-02-27T20:47:10.501Z,100946.28
2023-02-27T20:52:18.624Z,100942.66
2023-02-27T20:57:21.109Z,100913.19
2023-02-27T21:02:23.342Z,100918.97
2023-02-27T21:07:25.612Z,100918.47
2023-02-27T21:12:27.622Z,100921.06
2023-02-27T21:17:29.686Z,100914.44
2023-02-27T21:22:32.561Z,100908.53
2023-02-27T21:27:34.695Z,100910.25
2023-02-27T21:32:37.010Z,100916.94
2023-02-27T21:37:46.788Z,100926.34
2023-02-27T21:42:49.619Z,100910.66
2023-02-27T21:47:51.793Z,100906.31
2023-02-27T21:52:53.811Z,100903.59
2023-02-27T21:57:57.071Z,100908.53
2023-02-27T22:02:59.294Z,100907.47
2023-02-27T22:08:01.357Z,100925.16
2023-02-27T22:13:03.389Z,100913.47
2023-02-27T22:18:06.570Z,100915.13
2023-02-27T22:23:08.853Z,100898.28
2023-02-27T22:28:11.005Z,100905.34
2023-02-27T22:33:13.224Z,100899.44
2023-02-27T22:38:15.288Z,100893.75
2023-02-27T22:43:17.645Z,100883.41
2023-02-27T22:48:19.657Z,100899.34
2023-02-27T22:53:22.716Z,100888.47
2023-02-27T22:58:25.300Z,100891.78
2023-02-27T23:03:27.305Z,100880.47
2023-02-27T23:08:29.539Z,100880.63
2023-02-27T23:13:32.225Z,100895.25
2023-02-27T23:18:34.351Z,100900.66
2023-02-27T23:23:36.768Z,100891.97
2023-02-27T23:28:39.116Z,100883.25
2023-02-27T23:33:41.384Z,100887.59
2023-02-27T23:38:46.531Z,100888.09
2023-02-27T23:43:52.631Z,100883.41
2023-02-27T23:48:54.616Z,100881.91
2023-02-27T23:53:56.544Z,100903.59
2023-02-27T23:59:04.518Z,100914.09
